Terminal Aerodrome Forecast
Issued by NWS Wilmington, OH

Current Version | Previous Version | Text Only | Print | Product List | Glossary Off
Versions: 1 2 3 4 5 6 7 8 9 10 11 12 13 14 15 16 17 18 19 20 21 22

000
FTUS41 KILN 262200 AAA
TAFDAY
TAF AMD
KDAY 262213Z 2622/2718 32011KT P6SM BKN025
     FM270000 31008KT P6SM SCT035
     FM271000 34008KT P6SM BKN025
     FM271300 34010KT P6SM VCSH BKN025
     FM271600 34012G22KT P6SM VCSH BKN035=

USA.gov is the U.S. government's official web portal to all federal, state and local government web resources and services.